sensor_id;sensor_type;location;lat;lon;timestamp;P1;durP1;ratioP1;P2;durP2;ratioP2
22121;SDS011;11227;53.046;10.512;2022-10-16T00:00:55;2.05;;;1.80;;
22121;SDS011;11227;53.046;10.512;2022-10-16T00:04:57;2.42;;;1.40;;
22121;SDS011;11227;53.046;10.512;2022-10-16T00:08:59;1.88;;;1.52;;
22121;SDS011;11227;53.046;10.512;2022-10-16T00:13:02;1.63;;;1.52;;
22121;SDS011;11227;53.046;10.512;2022-10-16T00:17:04;1.45;;;1.30;;
22121;SDS011;11227;53.046;10.512;2022-10-16T00:21:07;1.42;;;1.27;;
22121;SDS011;11227;53.046;10.512;2022-10-16T00:25:10;1.35;;;1.23;;
22121;SDS011;11227;53.046;10.512;2022-10-16T00:29:12;2.08;;;1.70;;
22121;SDS011;11227;53.046;10.512;2022-10-16T00:33:13;2.88;;;1.50;;
22121;SDS011;11227;53.046;10.512;2022-10-16T00:37:16;2.20;;;1.60;;
22121;SDS011;11227;53.046;10.512;2022-10-16T00:41:18;3.20;;;1.60;;
22121;SDS011;11227;53.046;10.512;2022-10-16T00:45:19;2.75;;;1.50;;
22121;SDS011;11227;53.046;10.512;2022-10-16T00:49:21;1.40;;;1.10;;
22121;SDS011;11227;53.046;10.512;2022-10-16T00:53:23;2.20;;;1.38;;
22121;SDS011;11227;53.046;10.512;2022-10-16T00:57:27;2.67;;;1.77;;
22121;SDS011;11227;53.046;10.512;2022-10-16T01:01:28;2.67;;;1.60;;
22121;SDS011;11227;53.046;10.512;2022-10-16T01:05:34;2.00;;;1.42;;
22121;SDS011;11227;53.046;10.512;2022-10-16T01:10:06;2.17;;;1.50;;
22121;SDS011;11227;53.046;10.512;2022-10-16T01:14:15;2.80;;;1.75;;
22121;SDS011;11227;53.046;10.512;2022-10-16T01:18:32;1.55;;;1.45;;
22121;SDS011;11227;53.046;10.512;2022-10-16T01:35:24;2.13;;;1.17;;
22121;SDS011;11227;53.046;10.512;2022-10-16T01:39:30;2.10;;;1.67;;
22121;SDS011;11227;53.046;10.512;2022-10-16T01:43:38;1.25;;;1.15;;
22121;SDS011;11227;53.046;10.512;2022-10-16T01:47:44;2.03;;;1.48;;
22121;SDS011;11227;53.046;10.512;2022-10-16T01:51:48;2.30;;;1.55;;
22121;SDS011;11227;53.046;10.512;2022-10-16T01:55:54;2.35;;;1.50;;
22121;SDS011;11227;53.046;10.512;2022-10-16T01:59:58;1.20;;;1.10;;
22121;SDS011;11227;53.046;10.512;2022-10-16T02:04:09;3.13;;;1.35;;
22121;SDS011;11227;53.046;10.512;2022-10-16T02:08:15;1.88;;;1.23;;
22121;SDS011;11227;53.046;10.512;2022-10-16T02:12:28;1.45;;;1.10;;
22121;SDS011;11227;53.046;10.512;2022-10-16T02:16:34;1.40;;;1.17;;
22121;SDS011;11227;53.046;10.512;2022-10-16T02:20:50;1.47;;;1.27;;
22121;SDS011;11227;53.046;10.512;2022-10-16T02:29:20;1.55;;;1.20;;
22121;SDS011;11227;53.046;10.512;2022-10-16T02:33:26;1.75;;;1.27;;
22121;SDS011;11227;53.046;10.512;2022-10-16T02:37:29;0.80;;;0.80;;
22121;SDS011;11227;53.046;10.512;2022-10-16T02:41:32;1.58;;;1.40;;
22121;SDS011;11227;53.046;10.512;2022-10-16T02:45:34;1.17;;;1.08;;
22121;SDS011;11227;53.046;10.512;2022-10-16T02:49:35;2.08;;;1.33;;
22121;SDS011;11227;53.046;10.512;2022-10-16T02:53:37;1.00;;;0.90;;
22121;SDS011;11227;53.046;10.512;2022-10-16T02:57:38;1.23;;;1.08;;
22121;SDS011;11227;53.046;10.512;2022-10-16T03:01:41;1.15;;;1.00;;
22121;SDS011;11227;53.046;10.512;2022-10-16T03:05:43;1.30;;;0.75;;
22121;SDS011;11227;53.046;10.512;2022-10-16T03:09:46;1.73;;;1.30;;
22121;SDS011;11227;53.046;10.512;2022-10-16T03:13:48;1.67;;;1.08;;
22121;SDS011;11227;53.046;10.512;2022-10-16T03:17:50;0.90;;;0.90;;
22121;SDS011;11227;53.046;10.512;2022-10-16T03:21:51;1.08;;;0.93;;
22121;SDS011;11227;53.046;10.512;2022-10-16T03:25:53;2.35;;;1.10;;
22121;SDS011;11227;53.046;10.512;2022-10-16T03:29:55;1.50;;;1.10;;
22121;SDS011;11227;53.046;10.512;2022-10-16T03:33:56;1.05;;;0.95;;
22121;SDS011;11227;53.046;10.512;2022-10-16T03:37:58;1.20;;;1.10;;
22121;SDS011;11227;53.046;10.512;2022-10-16T03:42:00;0.80;;;0.75;;
22121;SDS011;11227;53.046;10.512;2022-10-16T03:46:01;1.15;;;1.10;;
22121;SDS011;11227;53.046;10.512;2022-10-16T03:50:03;1.17;;;1.08;;
22121;SDS011;11227;53.046;10.512;2022-10-16T03:54:06;1.20;;;1.02;;
22121;SDS011;11227;53.046;10.512;2022-10-16T03:58:07;0.85;;;0.85;;
22121;SDS011;11227;53.046;10.512;2022-10-16T04:02:09;1.50;;;1.10;;
22121;SDS011;11227;53.046;10.512;2022-10-16T04:06:11;1.10;;;0.98;;
22121;SDS011;11227;53.046;10.512;2022-10-16T04:10:12;0.88;;;0.88;;
22121;SDS011;11227;53.046;10.512;2022-10-16T04:14:14;0.93;;;0.77;;
22121;SDS011;11227;53.046;10.512;2022-10-16T04:18:16;0.98;;;0.88;;
22121;SDS011;11227;53.046;10.512;2022-10-16T04:22:17;1.02;;;0.93;;
22121;SDS011;11227;53.046;10.512;2022-10-16T04:26:19;1.08;;;0.90;;
22121;SDS011;11227;53.046;10.512;2022-10-16T04:30:21;0.98;;;0.88;;
22121;SDS011;11227;53.046;10.512;2022-10-16T04:34:23;2.35;;;1.60;;
22121;SDS011;11227;53.046;10.512;2022-10-16T04:38:25;1.00;;;0.90;;
22121;SDS011;11227;53.046;10.512;2022-10-16T04:42:27;0.88;;;0.80;;
22121;SDS011;11227;53.046;10.512;2022-10-16T04:46:28;1.92;;;1.20;;
22121;SDS011;11227;53.046;10.512;2022-10-16T04:50:30;1.05;;;0.90;;
22121;SDS011;11227;53.046;10.512;2022-10-16T04:54:32;1.23;;;0.90;;
22121;SDS011;11227;53.046;10.512;2022-10-16T04:58:33;1.67;;;1.05;;
22121;SDS011;11227;53.046;10.512;2022-10-16T05:02:35;1.23;;;0.90;;
22121;SDS011;11227;53.046;10.512;2022-10-16T05:06:37;0.90;;;0.90;;
22121;SDS011;11227;53.046;10.512;2022-10-16T05:10:40;1.38;;;0.70;;
22121;SDS011;11227;53.046;10.512;2022-10-16T05:14:43;1.10;;;0.80;;
22121;SDS011;11227;53.046;10.512;2022-10-16T05:18:45;0.93;;;0.85;;
22121;SDS011;11227;53.046;10.512;2022-10-16T05:22:47;1.00;;;0.80;;
22121;SDS011;11227;53.046;10.512;2022-10-16T05:26:49;0.70;;;0.63;;
22121;SDS011;11227;53.046;10.512;2022-10-16T05:30:52;0.98;;;0.95;;
22121;SDS011;11227;53.046;10.512;2022-10-16T05:34:53;1.67;;;0.95;;
22121;SDS011;11227;53.046;10.512;2022-10-16T05:38:55;1.55;;;1.00;;
22121;SDS011;11227;53.046;10.512;2022-10-16T05:42:57;0.95;;;0.88;;
22121;SDS011;11227;53.046;10.512;2022-10-16T05:46:58;1.20;;;0.88;;
22121;SDS011;11227;53.046;10.512;2022-10-16T05:51:01;1.00;;;0.90;;
22121;SDS011;11227;53.046;10.512;2022-10-16T05:55:04;0.93;;;0.93;;
22121;SDS011;11227;53.046;10.512;2022-10-16T05:59:06;0.60;;;0.60;;
22121;SDS011;11227;53.046;10.512;2022-10-16T06:03:08;0.77;;;0.77;;
22121;SDS011;11227;53.046;10.512;2022-10-16T06:07:10;1.55;;;0.80;;
22121;SDS011;11227;53.046;10.512;2022-10-16T06:11:16;1.00;;;0.90;;
22121;SDS011;11227;53.046;10.512;2022-10-16T06:15:19;0.55;;;0.55;;
22121;SDS011;11227;53.046;10.512;2022-10-16T06:19:21;0.73;;;0.73;;
22121;SDS011;11227;53.046;10.512;2022-10-16T06:23:24;1.00;;;1.00;;
22121;SDS011;11227;53.046;10.512;2022-10-16T06:27:26;0.93;;;0.77;;
22121;SDS011;11227;53.046;10.512;2022-10-16T06:31:28;0.85;;;0.80;;
22121;SDS011;11227;53.046;10.512;2022-10-16T06:35:32;0.88;;;0.88;;
22121;SDS011;11227;53.046;10.512;2022-10-16T06:39:33;1.35;;;0.70;;
22121;SDS011;11227;53.046;10.512;2022-10-16T06:43:35;1.13;;;0.90;;
22121;SDS011;11227;53.046;10.512;2022-10-16T06:47:37;1.13;;;0.70;;
22121;SDS011;11227;53.046;10.512;2022-10-16T06:51:38;0.68;;;0.65;;
22121;SDS011;11227;53.046;10.512;2022-10-16T06:55:43;0.80;;;0.75;;
22121;SDS011;11227;53.046;10.512;2022-10-16T06:59:45;0.85;;;0.65;;
22121;SDS011;11227;53.046;10.512;2022-10-16T07:03:48;1.00;;;0.88;;
22121;SDS011;11227;53.046;10.512;2022-10-16T07:07:49;0.82;;;0.82;;
22121;SDS011;11227;53.046;10.512;2022-10-16T07:11:51;1.13;;;0.70;;
22121;SDS011;11227;53.046;10.512;2022-10-16T07:15:53;0.50;;;0.50;;
22121;SDS011;11227;53.046;10.512;2022-10-16T07:19:54;0.77;;;0.77;;
22121;SDS011;11227;53.046;10.512;2022-10-16T07:23:57;1.65;;;0.68;;
22121;SDS011;11227;53.046;10.512;2022-10-16T07:28:00;1.35;;;0.80;;
22121;SDS011;11227;53.046;10.512;2022-10-16T07:32:02;0.85;;;0.85;;
22121;SDS011;11227;53.046;10.512;2022-10-16T07:36:04;1.27;;;0.98;;
22121;SDS011;11227;53.046;10.512;2022-10-16T07:40:07;0.57;;;0.57;;
22121;SDS011;11227;53.046;10.512;2022-10-16T07:44:09;0.60;;;0.60;;
22121;SDS011;11227;53.046;10.512;2022-10-16T07:48:11;1.23;;;0.90;;
22121;SDS011;11227;53.046;10.512;2022-10-16T07:52:14;0.45;;;0.45;;
22121;SDS011;11227;53.046;10.512;2022-10-16T07:56:17;0.77;;;0.68;;
22121;SDS011;11227;53.046;10.512;2022-10-16T08:00:19;0.80;;;0.80;;
22121;SDS011;11227;53.046;10.512;2022-10-16T08:04:21;0.90;;;0.70;;
22121;SDS011;11227;53.046;10.512;2022-10-16T08:08:22;0.73;;;0.73;;
22121;SDS011;11227;53.046;10.512;2022-10-16T08:12:25;0.90;;;0.80;;
22121;SDS011;11227;53.046;10.512;2022-10-16T08:16:27;0.60;;;0.60;;
22121;SDS011;11227;53.046;10.512;2022-10-16T08:20:29;0.80;;;0.75;;
22121;SDS011;11227;53.046;10.512;2022-10-16T08:24:32;0.70;;;0.60;;
22121;SDS011;11227;53.046;10.512;2022-10-16T08:28:35;0.50;;;0.50;;
22121;SDS011;11227;53.046;10.512;2022-10-16T08:37:20;1.27;;;0.65;;
22121;SDS011;11227;53.046;10.512;2022-10-16T08:45:34;0.57;;;0.55;;
22121;SDS011;11227;53.046;10.512;2022-10-16T08:50:02;0.80;;;0.70;;
22121;SDS011;11227;53.046;10.512;2022-10-16T08:54:21;1.05;;;0.80;;
22121;SDS011;11227;53.046;10.512;2022-10-16T08:58:29;0.95;;;0.80;;
22121;SDS011;11227;53.046;10.512;2022-10-16T09:02:36;0.82;;;0.60;;
22121;SDS011;11227;53.046;10.512;2022-10-16T09:10:51;0.65;;;0.65;;
22121;SDS011;11227;53.046;10.512;2022-10-16T09:19:38;0.85;;;0.68;;
22121;SDS011;11227;53.046;10.512;2022-10-16T09:23:47;0.50;;;0.50;;
22121;SDS011;11227;53.046;10.512;2022-10-16T09:27:51;0.60;;;0.60;;
22121;SDS011;11227;53.046;10.512;2022-10-16T09:31:54;0.70;;;0.70;;
22121;SDS011;11227;53.046;10.512;2022-10-16T09:36:09;0.60;;;0.50;;
22121;SDS011;11227;53.046;10.512;2022-10-16T09:40:12;0.60;;;0.50;;
22121;SDS011;11227;53.046;10.512;2022-10-16T09:44:29;1.05;;;0.80;;
22121;SDS011;11227;53.046;10.512;2022-10-16T09:52:37;0.60;;;0.60;;
22121;SDS011;11227;53.046;10.512;2022-10-16T09:56:38;0.47;;;0.47;;
22121;SDS011;11227;53.046;10.512;2022-10-16T10:00:41;0.70;;;0.52;;
22121;SDS011;11227;53.046;10.512;2022-10-16T10:04:50;0.73;;;0.73;;
22121;SDS011;11227;53.046;10.512;2022-10-16T10:08:59;0.85;;;0.60;;
22121;SDS011;11227;53.046;10.512;2022-10-16T10:13:04;0.70;;;0.70;;
22121;SDS011;11227;53.046;10.512;2022-10-16T10:17:19;1.08;;;0.63;;
22121;SDS011;11227;53.046;10.512;2022-10-16T10:21:29;1.38;;;0.50;;
22121;SDS011;11227;53.046;10.512;2022-10-16T10:25:37;0.40;;;0.40;;
22121;SDS011;11227;53.046;10.512;2022-10-16T10:34:41;0.50;;;0.50;;
22121;SDS011;11227;53.046;10.512;2022-10-16T10:38:56;0.55;;;0.50;;
22121;SDS011;11227;53.046;10.512;2022-10-16T10:51:46;2.00;;;0.70;;
22121;SDS011;11227;53.046;10.512;2022-10-16T10:56:15;0.40;;;0.40;;
22121;SDS011;11227;53.046;10.512;2022-10-16T11:09:36;1.30;;;0.60;;
22121;SDS011;11227;53.046;10.512;2022-10-16T11:13:56;0.68;;;0.50;;
22121;SDS011;11227;53.046;10.512;2022-10-16T11:22:33;2.35;;;0.60;;
22121;SDS011;11227;53.046;10.512;2022-10-16T11:26:39;2.42;;;0.73;;
22121;SDS011;11227;53.046;10.512;2022-10-16T11:35:12;0.40;;;0.40;;
22121;SDS011;11227;53.046;10.512;2022-10-16T11:39:21;2.45;;;0.70;;
22121;SDS011;11227;53.046;10.512;2022-10-16T11:43:31;0.73;;;0.60;;
22121;SDS011;11227;53.046;10.512;2022-10-16T11:47:45;0.55;;;0.55;;
22121;SDS011;11227;53.046;10.512;2022-10-16T11:52:13;0.65;;;0.50;;
22121;SDS011;11227;53.046;10.512;2022-10-16T11:56:19;0.50;;;0.50;;
22121;SDS011;11227;53.046;10.512;2022-10-16T12:00:27;1.48;;;0.55;;
22121;SDS011;11227;53.046;10.512;2022-10-16T12:04:37;1.55;;;0.60;;
22121;SDS011;11227;53.046;10.512;2022-10-16T12:08:47;2.15;;;0.57;;
22121;SDS011;11227;53.046;10.512;2022-10-16T12:12:49;0.60;;;0.50;;
22121;SDS011;11227;53.046;10.512;2022-10-16T12:16:53;0.47;;;0.43;;
22121;SDS011;11227;53.046;10.512;2022-10-16T12:21:06;1.55;;;0.80;;
22121;SDS011;11227;53.046;10.512;2022-10-16T12:33:40;0.50;;;0.50;;
22121;SDS011;11227;53.046;10.512;2022-10-16T12:37:53;2.00;;;0.60;;
22121;SDS011;11227;53.046;10.512;2022-10-16T12:42:06;2.30;;;0.60;;
22121;SDS011;11227;53.046;10.512;2022-10-16T12:50:31;0.65;;;0.50;;
22121;SDS011;11227;53.046;10.512;2022-10-16T12:54:38;1.02;;;0.63;;
22121;SDS011;11227;53.046;10.512;2022-10-16T13:11:55;2.67;;;0.50;;
22121;SDS011;11227;53.046;10.512;2022-10-16T13:16:02;0.43;;;0.43;;
22121;SDS011;11227;53.046;10.512;2022-10-16T13:33:04;0.95;;;0.52;;
22121;SDS011;11227;53.046;10.512;2022-10-16T13:37:17;1.23;;;0.63;;
22121;SDS011;11227;53.046;10.512;2022-10-16T13:41:20;0.60;;;0.60;;
22121;SDS011;11227;53.046;10.512;2022-10-16T13:45:23;1.13;;;0.65;;
22121;SDS011;11227;53.046;10.512;2022-10-16T13:49:28;0.55;;;0.55;;
22121;SDS011;11227;53.046;10.512;2022-10-16T13:53:31;0.98;;;0.50;;
22121;SDS011;11227;53.046;10.512;2022-10-16T13:57:34;0.63;;;0.55;;
22121;SDS011;11227;53.046;10.512;2022-10-16T14:01:42;1.85;;;0.50;;
22121;SDS011;11227;53.046;10.512;2022-10-16T14:05:49;2.20;;;0.70;;
22121;SDS011;11227;53.046;10.512;2022-10-16T14:09:53;1.67;;;0.68;;
22121;SDS011;11227;53.046;10.512;2022-10-16T14:13:55;0.73;;;0.60;;
22121;SDS011;11227;53.046;10.512;2022-10-16T14:17:58;1.38;;;0.70;;
22121;SDS011;11227;53.046;10.512;2022-10-16T14:22:00;0.75;;;0.60;;
22121;SDS011;11227;53.046;10.512;2022-10-16T14:30:28;0.65;;;0.60;;
22121;SDS011;11227;53.046;10.512;2022-10-16T14:34:33;0.73;;;0.50;;
22121;SDS011;11227;53.046;10.512;2022-10-16T14:38:48;0.50;;;0.50;;
22121;SDS011;11227;53.046;10.512;2022-10-16T14:43:06;0.75;;;0.50;;
22121;SDS011;11227;53.046;10.512;2022-10-16T14:47:18;1.42;;;0.73;;
22121;SDS011;11227;53.046;10.512;2022-10-16T14:51:23;1.33;;;0.50;;
22121;SDS011;11227;53.046;10.512;2022-10-16T14:55:25;0.93;;;0.60;;
22121;SDS011;11227;53.046;10.512;2022-10-16T15:03:28;1.98;;;0.60;;
22121;SDS011;11227;53.046;10.512;2022-10-16T15:07:30;0.65;;;0.40;;
22121;SDS011;11227;53.046;10.512;2022-10-16T15:11:32;3.03;;;0.82;;
22121;SDS011;11227;53.046;10.512;2022-10-16T15:15:35;0.50;;;0.43;;
22121;SDS011;11227;53.046;10.512;2022-10-16T15:19:43;1.40;;;0.50;;
22121;SDS011;11227;53.046;10.512;2022-10-16T15:23:44;1.05;;;0.80;;
22121;SDS011;11227;53.046;10.512;2022-10-16T15:27:46;0.93;;;0.60;;
22121;SDS011;11227;53.046;10.512;2022-10-16T15:31:47;0.50;;;0.50;;
22121;SDS011;11227;53.046;10.512;2022-10-16T15:35:50;0.77;;;0.40;;
22121;SDS011;11227;53.046;10.512;2022-10-16T15:39:52;1.83;;;0.80;;
22121;SDS011;11227;53.046;10.512;2022-10-16T15:43:54;1.15;;;0.50;;
22121;SDS011;11227;53.046;10.512;2022-10-16T15:47:55;0.40;;;0.40;;
22121;SDS011;11227;53.046;10.512;2022-10-16T15:51:57;0.57;;;0.50;;
22121;SDS011;11227;53.046;10.512;2022-10-16T15:56:03;0.30;;;0.30;;
22121;SDS011;11227;53.046;10.512;2022-10-16T16:04:11;0.55;;;0.50;;
22121;SDS011;11227;53.046;10.512;2022-10-16T16:08:33;0.70;;;0.50;;
22121;SDS011;11227;53.046;10.512;2022-10-16T16:12:35;0.35;;;0.30;;
22121;SDS011;11227;53.046;10.512;2022-10-16T16:16:37;0.43;;;0.43;;
22121;SDS011;11227;53.046;10.512;2022-10-16T16:20:39;0.50;;;0.50;;
22121;SDS011;11227;53.046;10.512;2022-10-16T16:24:41;0.40;;;0.40;;
22121;SDS011;11227;53.046;10.512;2022-10-16T16:28:43;0.75;;;0.45;;
22121;SDS011;11227;53.046;10.512;2022-10-16T16:32:44;2.33;;;0.70;;
22121;SDS011;11227;53.046;10.512;2022-10-16T16:36:46;7.20;;;1.33;;
22121;SDS011;11227;53.046;10.512;2022-10-16T16:40:48;4.35;;;0.90;;
22121;SDS011;11227;53.046;10.512;2022-10-16T16:44:56;1.08;;;0.75;;
22121;SDS011;11227;53.046;10.512;2022-10-16T16:48:58;1.55;;;0.90;;
22121;SDS011;11227;53.046;10.512;2022-10-16T16:53:00;2.85;;;0.90;;
22121;SDS011;11227;53.046;10.512;2022-10-16T16:57:02;0.93;;;0.70;;
22121;SDS011;11227;53.046;10.512;2022-10-16T17:01:05;6.38;;;1.20;;
22121;SDS011;11227;53.046;10.512;2022-10-16T17:05:22;1.88;;;0.90;;
22121;SDS011;11227;53.046;10.512;2022-10-16T17:09:24;2.95;;;0.90;;
22121;SDS011;11227;53.046;10.512;2022-10-16T17:13:27;3.70;;;1.20;;
22121;SDS011;11227;53.046;10.512;2022-10-16T17:17:31;2.97;;;1.15;;
22121;SDS011;11227;53.046;10.512;2022-10-16T17:21:33;3.00;;;1.45;;
22121;SDS011;11227;53.046;10.512;2022-10-16T17:29:53;2.22;;;1.25;;
22121;SDS011;11227;53.046;10.512;2022-10-16T17:33:55;4.05;;;1.13;;
22121;SDS011;11227;53.046;10.512;2022-10-16T17:37:58;5.35;;;1.52;;
22121;SDS011;11227;53.046;10.512;2022-10-16T17:42:00;3.00;;;1.20;;
22121;SDS011;11227;53.046;10.512;2022-10-16T17:46:02;3.85;;;1.13;;
22121;SDS011;11227;53.046;10.512;2022-10-16T17:50:04;5.07;;;1.45;;
22121;SDS011;11227;53.046;10.512;2022-10-16T17:54:06;4.93;;;2.05;;
22121;SDS011;11227;53.046;10.512;2022-10-16T17:58:08;4.65;;;1.52;;
22121;SDS011;11227;53.046;10.512;2022-10-16T18:02:10;3.45;;;1.40;;
22121;SDS011;11227;53.046;10.512;2022-10-16T18:06:12;5.43;;;1.60;;
22121;SDS011;11227;53.046;10.512;2022-10-16T18:10:17;5.57;;;2.05;;
22121;SDS011;11227;53.046;10.512;2022-10-16T18:14:21;12.27;;;3.78;;
22121;SDS011;11227;53.046;10.512;2022-10-16T18:18:23;10.52;;;2.75;;
22121;SDS011;11227;53.046;10.512;2022-10-16T18:22:29;7.13;;;3.08;;
22121;SDS011;11227;53.046;10.512;2022-10-16T18:26:33;6.18;;;2.42;;
22121;SDS011;11227;53.046;10.512;2022-10-16T18:30:35;8.25;;;2.35;;
22121;SDS011;11227;53.046;10.512;2022-10-16T18:34:36;7.25;;;2.75;;
22121;SDS011;11227;53.046;10.512;2022-10-16T18:38:38;6.90;;;2.60;;
22121;SDS011;11227;53.046;10.512;2022-10-16T18:42:40;9.80;;;2.45;;
22121;SDS011;11227;53.046;10.512;2022-10-16T18:46:41;12.68;;;2.88;;
22121;SDS011;11227;53.046;10.512;2022-10-16T18:50:43;7.70;;;3.05;;
22121;SDS011;11227;53.046;10.512;2022-10-16T18:54:45;6.07;;;2.15;;
22121;SDS011;11227;53.046;10.512;2022-10-16T18:58:47;5.55;;;2.15;;
22121;SDS011;11227;53.046;10.512;2022-10-16T19:02:49;7.32;;;3.22;;
22121;SDS011;11227;53.046;10.512;2022-10-16T19:06:51;10.90;;;3.42;;
22121;SDS011;11227;53.046;10.512;2022-10-16T19:10:54;7.63;;;2.40;;
22121;SDS011;11227;53.046;10.512;2022-10-16T19:14:55;9.07;;;2.90;;
22121;SDS011;11227;53.046;10.512;2022-10-16T19:18:58;6.00;;;2.53;;
22121;SDS011;11227;53.046;10.512;2022-10-16T19:23:01;9.35;;;2.90;;
22121;SDS011;11227;53.046;10.512;2022-10-16T19:27:04;9.77;;;3.20;;
22121;SDS011;11227;53.046;10.512;2022-10-16T19:31:07;9.73;;;3.25;;
22121;SDS011;11227;53.046;10.512;2022-10-16T19:35:13;5.95;;;2.67;;
22121;SDS011;11227;53.046;10.512;2022-10-16T19:39:15;6.20;;;2.63;;
22121;SDS011;11227;53.046;10.512;2022-10-16T19:43:19;8.60;;;3.28;;
22121;SDS011;11227;53.046;10.512;2022-10-16T19:47:22;8.02;;;2.65;;
22121;SDS011;11227;53.046;10.512;2022-10-16T19:51:25;7.68;;;2.90;;
22121;SDS011;11227;53.046;10.512;2022-10-16T19:55:29;8.52;;;2.92;;
22121;SDS011;11227;53.046;10.512;2022-10-16T19:59:32;9.73;;;2.75;;
22121;SDS011;11227;53.046;10.512;2022-10-16T20:03:33;7.82;;;2.67;;
22121;SDS011;11227;53.046;10.512;2022-10-16T20:07:35;8.75;;;2.28;;
22121;SDS011;11227;53.046;10.512;2022-10-16T20:11:37;9.27;;;2.88;;
22121;SDS011;11227;53.046;10.512;2022-10-16T20:15:39;5.28;;;2.30;;
22121;SDS011;11227;53.046;10.512;2022-10-16T20:19:41;5.78;;;2.30;;
22121;SDS011;11227;53.046;10.512;2022-10-16T20:23:42;5.45;;;2.33;;
22121;SDS011;11227;53.046;10.512;2022-10-16T20:27:45;5.78;;;2.58;;
22121;SDS011;11227;53.046;10.512;2022-10-16T20:31:46;8.20;;;2.58;;
22121;SDS011;11227;53.046;10.512;2022-10-16T20:35:49;7.57;;;2.78;;
22121;SDS011;11227;53.046;10.512;2022-10-16T20:39:50;6.70;;;2.72;;
22121;SDS011;11227;53.046;10.512;2022-10-16T20:43:52;5.53;;;2.65;;
22121;SDS011;11227;53.046;10.512;2022-10-16T20:47:55;7.60;;;2.80;;
22121;SDS011;11227;53.046;10.512;2022-10-16T20:51:57;6.93;;;2.85;;
22121;SDS011;11227;53.046;10.512;2022-10-16T20:55:59;7.95;;;2.30;;
22121;SDS011;11227;53.046;10.512;2022-10-16T21:00:02;6.78;;;2.40;;
22121;SDS011;11227;53.046;10.512;2022-10-16T21:04:06;10.55;;;2.83;;
22121;SDS011;11227;53.046;10.512;2022-10-16T21:08:08;4.50;;;2.60;;
22121;SDS011;11227;53.046;10.512;2022-10-16T21:12:10;6.07;;;2.50;;
22121;SDS011;11227;53.046;10.512;2022-10-16T21:16:12;7.00;;;2.33;;
22121;SDS011;11227;53.046;10.512;2022-10-16T21:20:15;6.80;;;2.95;;
22121;SDS011;11227;53.046;10.512;2022-10-16T21:24:17;5.65;;;2.55;;
22121;SDS011;11227;53.046;10.512;2022-10-16T21:28:18;4.18;;;1.92;;
22121;SDS011;11227;53.046;10.512;2022-10-16T21:32:20;9.40;;;3.33;;
22121;SDS011;11227;53.046;10.512;2022-10-16T21:36:26;5.90;;;2.42;;
22121;SDS011;11227;53.046;10.512;2022-10-16T21:40:29;5.75;;;2.13;;
22121;SDS011;11227;53.046;10.512;2022-10-16T21:44:30;6.15;;;2.60;;
22121;SDS011;11227;53.046;10.512;2022-10-16T21:48:32;8.95;;;2.90;;
22121;SDS011;11227;53.046;10.512;2022-10-16T21:52:34;3.97;;;2.03;;
22121;SDS011;11227;53.046;10.512;2022-10-16T21:56:35;6.15;;;2.50;;
22121;SDS011;11227;53.046;10.512;2022-10-16T22:00:38;5.20;;;2.20;;
22121;SDS011;11227;53.046;10.512;2022-10-16T22:04:40;4.90;;;2.08;;
22121;SDS011;11227;53.046;10.512;2022-10-16T22:08:42;7.85;;;2.25;;
22121;SDS011;11227;53.046;10.512;2022-10-16T22:12:45;5.93;;;2.40;;
22121;SDS011;11227;53.046;10.512;2022-10-16T22:16:47;4.03;;;1.70;;
22121;SDS011;11227;53.046;10.512;2022-10-16T22:20:50;4.40;;;1.92;;
22121;SDS011;11227;53.046;10.512;2022-10-16T22:24:51;4.95;;;2.08;;
22121;SDS011;11227;53.046;10.512;2022-10-16T22:28:53;4.25;;;1.80;;
22121;SDS011;11227;53.046;10.512;2022-10-16T22:32:55;5.78;;;2.35;;
22121;SDS011;11227;53.046;10.512;2022-10-16T22:36:57;5.22;;;2.22;;
22121;SDS011;11227;53.046;10.512;2022-10-16T22:41:00;5.65;;;2.22;;
22121;SDS011;11227;53.046;10.512;2022-10-16T22:49:07;3.30;;;1.80;;
22121;SDS011;11227;53.046;10.512;2022-10-16T22:53:08;2.50;;;1.67;;
22121;SDS011;11227;53.046;10.512;2022-10-16T22:57:10;6.32;;;2.55;;
22121;SDS011;11227;53.046;10.512;2022-10-16T23:01:13;3.42;;;1.70;;
22121;SDS011;11227;53.046;10.512;2022-10-16T23:05:23;5.78;;;2.53;;
22121;SDS011;11227;53.046;10.512;2022-10-16T23:09:25;3.58;;;1.90;;
22121;SDS011;11227;53.046;10.512;2022-10-16T23:13:27;3.60;;;1.77;;
22121;SDS011;11227;53.046;10.512;2022-10-16T23:17:29;2.97;;;1.67;;
22121;SDS011;11227;53.046;10.512;2022-10-16T23:21:30;2.72;;;1.80;;
22121;SDS011;11227;53.046;10.512;2022-10-16T23:25:32;3.85;;;2.00;;
22121;SDS011;11227;53.046;10.512;2022-10-16T23:29:34;2.92;;;1.95;;
22121;SDS011;11227;53.046;10.512;2022-10-16T23:33:37;5.43;;;2.03;;
22121;SDS011;11227;53.046;10.512;2022-10-16T23:37:39;6.43;;;1.85;;
22121;SDS011;11227;53.046;10.512;2022-10-16T23:41:41;5.03;;;2.17;;
22121;SDS011;11227;53.046;10.512;2022-10-16T23:45:42;3.78;;;1.58;;
22121;SDS011;11227;53.046;10.512;2022-10-16T23:49:44;6.30;;;2.17;;
22121;SDS011;11227;53.046;10.512;2022-10-16T23:53:46;4.90;;;1.85;;
22121;SDS011;11227;53.046;10.512;2022-10-16T23:57:48;3.45;;;1.90;;
